Time;durP1;ratioP1;P1;durP2;ratioP2;P2;SDS_P1;SDS_P2;PMS_P1;PMS_P2;Temp;Humidity;BMP_temperature;BMP_pressure;BME280_temperature;BME280_humidity;BME280_pressure;Samples;Min_cycle;Max_cycle;Signal;HPM_P1;HPM_P2
2023/12/13 00:02:06;;;;;;;10.52;4.70;;;8.80;99.90;;;;;;5016960;28;20022;-67
2023/12/13 00:04:32;;;;;;;10.20;4.40;;;8.90;99.90;;;;;;5016712;28;20034;-67
2023/12/13 00:06:58;;;;;;;8.90;4.25;;;8.90;99.90;;;;;;5018310;28;20088;-67
2023/12/13 00:09:23;;;;;;;12.38;4.22;;;8.90;99.90;;;;;;5019505;28;20072;-67
2023/12/13 00:11:49;;;;;;;9.48;4.95;;;8.80;99.90;;;;;;5020099;28;20018;-67
2023/12/13 00:14:14;;;;;;;8.98;4.15;;;8.70;99.90;;;;;;5020139;28;20030;-67
2023/12/13 00:16:40;;;;;;;9.77;4.68;;;8.60;99.90;;;;;;5019190;28;20022;-67
2023/12/13 00:19:06;;;;;;;11.57;4.38;;;8.60;99.90;;;;;;5020177;28;20033;-67
2023/12/13 00:21:32;;;;;;;10.90;4.72;;;8.60;99.90;;;;;;5020408;28;20096;-67
2023/12/13 00:23:57;;;;;;;12.75;4.95;;;8.60;99.90;;;;;;5020117;28;20022;-67
2023/12/13 00:26:23;;;;;;;13.23;4.63;;;8.60;99.90;;;;;;5019081;28;20116;-67
2023/12/13 00:28:50;;;;;;;11.65;3.85;;;8.60;99.90;;;;;;5019045;28;20161;-67
2023/12/13 00:31:16;;;;;;;10.52;3.88;;;8.50;99.90;;;;;;5019011;28;20025;-67
2023/12/13 00:33:42;;;;;;;11.57;4.28;;;8.40;99.90;;;;;;5019642;28;20022;-67
2023/12/13 00:36:08;;;;;;;9.00;3.53;;;8.50;99.90;;;;;;5019902;28;20041;-68
2023/12/13 00:38:34;;;;;;;14.85;4.35;;;8.40;99.90;;;;;;5018785;28;20029;-67
2023/12/13 00:41:00;;;;;;;13.52;4.32;;;8.50;99.90;;;;;;5018822;28;20026;-67
2023/12/13 00:43:26;;;;;;;12.43;4.15;;;8.40;99.90;;;;;;5018698;28;20059;-67
2023/12/13 00:45:51;;;;;;;11.73;4.85;;;8.30;99.90;;;;;;5019559;28;20029;-67
2023/12/13 00:48:17;;;;;;;16.08;5.22;;;8.20;99.90;;;;;;5018691;28;20084;-67
2023/12/13 00:50:43;;;;;;;18.48;5.90;;;8.20;99.90;;;;;;5018472;28;20022;-67
2023/12/13 00:53:09;;;;;;;23.77;5.78;;;8.30;99.90;;;;;;5018812;28;20033;-67
2023/12/13 00:55:34;;;;;;;17.00;7.18;;;8.30;99.90;;;;;;5018362;28;20060;-67
2023/12/13 00:58:00;;;;;;;18.58;7.10;;;8.30;99.90;;;;;;5018435;28;20030;-67
2023/12/13 01:00:26;;;;;;;27.85;8.23;;;8.40;99.90;;;;;;5018451;28;20021;-67
2023/12/13 01:02:52;;;;;;;22.33;7.90;;;8.40;99.90;;;;;;5019198;28;20029;-67
2023/12/13 01:05:18;;;;;;;22.10;7.47;;;8.40;99.90;;;;;;5018109;28;20026;-67
2023/12/13 01:07:44;;;;;;;19.75;7.43;;;8.40;99.90;;;;;;5019155;28;20018;-68
2023/12/13 01:10:10;;;;;;;15.20;6.65;;;8.60;99.90;;;;;;5018958;28;20022;-67
2023/12/13 01:12:35;;;;;;;17.50;6.32;;;8.60;99.90;;;;;;5019092;28;20033;-67
2023/12/13 01:15:01;;;;;;;14.52;5.95;;;8.70;99.90;;;;;;5017976;28;20088;-67
2023/12/13 01:17:26;;;;;;;16.98;6.60;;;8.70;99.90;;;;;;5018473;28;20026;-67
2023/12/13 01:19:52;;;;;;;16.83;6.60;;;8.90;99.90;;;;;;5019185;28;20026;-67
2023/12/13 01:22:21;;;;;;;20.90;6.78;;;8.80;99.90;;;;;;5018324;28;20033;-67
2023/12/13 01:24:47;;;;;;;17.02;7.25;;;8.80;99.90;;;;;;5018805;28;20121;-67
2023/12/13 01:27:12;;;;;;;21.38;7.63;;;8.70;99.90;;;;;;5017813;28;20030;-67
2023/12/13 01:29:38;;;;;;;19.35;7.53;;;8.70;99.90;;;;;;5017963;28;20065;-67
2023/12/13 01:32:03;;;;;;;22.73;7.45;;;8.70;99.90;;;;;;5017845;28;20025;-67
2023/12/13 01:34:30;;;;;;;17.85;7.80;;;8.70;99.90;;;;;;5018609;28;20022;-67
2023/12/13 01:36:55;;;;;;;18.50;7.53;;;8.60;99.90;;;;;;5017853;28;20053;-67
2023/12/13 01:39:21;;;;;;;22.13;8.05;;;8.60;99.90;;;;;;5018599;28;20066;-67
2023/12/13 01:41:46;;;;;;;19.30;8.05;;;8.60;99.90;;;;;;5018601;28;20033;-67
2023/12/13 01:44:12;;;;;;;21.60;7.72;;;8.60;99.90;;;;;;5017911;28;20025;-67
2023/12/13 01:46:39;;;;;;;16.42;7.65;;;8.60;99.90;;;;;;5017535;28;20057;-67
2023/12/13 01:49:06;;;;;;;21.10;8.18;;;8.50;99.90;;;;;;5017831;28;20022;-67
2023/12/13 01:51:34;;;;;;;21.10;7.47;;;8.50;99.90;;;;;;5018586;28;20022;-67
2023/12/13 01:54:01;;;;;;;24.45;7.25;;;8.30;99.90;;;;;;5018482;28;20018;-67
2023/12/13 01:56:28;;;;;;;17.95;6.93;;;8.40;99.90;;;;;;5017673;28;20121;-67
2023/12/13 01:58:54;;;;;;;16.58;6.78;;;8.40;99.90;;;;;;5017246;28;20049;-67
2023/12/13 02:01:19;;;;;;;18.20;6.93;;;8.50;99.90;;;;;;5017387;28;20037;-67
2023/12/13 02:03:46;;;;;;;13.77;6.60;;;8.50;99.90;;;;;;5017415;28;20030;-67
2023/12/13 02:06:11;;;;;;;14.75;6.43;;;8.40;99.90;;;;;;5017369;28;20022;-67
2023/12/13 02:08:37;;;;;;;15.20;5.90;;;8.20;99.90;;;;;;5017517;28;20022;-67
2023/12/13 02:11:03;;;;;;;18.10;6.35;;;8.20;99.90;;;;;;5017063;28;20029;-67
2023/12/13 02:13:29;;;;;;;20.10;7.10;;;8.20;99.90;;;;;;5017138;28;20018;-67
2023/12/13 02:15:55;;;;;;;25.50;7.90;;;8.10;99.90;;;;;;5017829;28;20057;-67
2023/12/13 02:18:21;;;;;;;22.67;8.10;;;8.10;99.90;;;;;;5017345;28;20030;-67
2023/12/13 02:20:50;;;;;;;16.95;6.93;;;8.10;99.90;;;;;;5017088;28;20046;-67
2023/12/13 02:23:15;;;;;;;19.98;7.18;;;8.10;99.90;;;;;;5017238;28;20105;-67
2023/12/13 02:25:47;;;;;;;16.58;6.78;;;8.00;99.90;;;;;;5016768;28;20116;-67
2023/12/13 02:28:13;;;;;;;19.40;7.43;;;7.90;99.90;;;;;;5017679;28;20030;-67
2023/12/13 02:30:41;;;;;;;19.02;6.95;;;7.80;99.90;;;;;;5015998;28;20025;-67
2023/12/13 02:33:08;;;;;;;23.90;7.32;;;7.70;99.90;;;;;;5017761;28;20022;-67
2023/12/13 02:35:34;;;;;;;21.05;7.22;;;7.70;99.90;;;;;;5017528;28;20053;-67
2023/12/13 02:37:59;;;;;;;20.27;7.13;;;7.50;99.90;;;;;;5016677;28;20048;-67
2023/12/13 02:40:25;;;;;;;22.25;7.50;;;7.40;99.90;;;;;;5016741;28;20057;-67
2023/12/13 02:42:51;;;;;;;16.90;7.07;;;7.50;99.90;;;;;;5016641;28;20061;-67
2023/12/13 02:45:17;;;;;;;17.35;7.43;;;7.40;99.90;;;;;;5016392;28;20058;-67
2023/12/13 02:47:43;;;;;;;16.45;7.03;;;7.40;99.90;;;;;;5017810;28;20026;-67
2023/12/13 02:50:13;;;;;;;14.45;6.45;;;7.40;99.90;;;;;;5017398;28;20018;-67
2023/12/13 02:52:39;;;;;;;16.83;6.40;;;7.30;99.90;;;;;;5016836;28;20022;-67
2023/12/13 02:55:06;;;;;;;26.88;8.13;;;7.20;99.90;;;;;;5016583;28;20026;-67
2023/12/13 02:57:32;;;;;;;16.00;7.18;;;7.30;99.90;;;;;;5016557;28;20115;-67
2023/12/13 02:59:58;;;;;;;16.65;6.30;;;7.20;99.90;;;;;;5016397;28;20018;-67
2023/12/13 03:02:25;;;;;;;19.95;6.18;;;7.20;99.90;;;;;;5016306;28;20053;-67
2023/12/13 03:04:50;;;;;;;15.85;6.85;;;7.20;99.90;;;;;;5016593;28;20022;-67
2023/12/13 03:07:16;;;;;;;16.38;5.80;;;7.10;99.90;;;;;;5016330;28;20029;-67
2023/12/13 03:09:41;;;;;;;17.08;5.97;;;7.10;99.90;;;;;;5016385;28;20110;-67
2023/12/13 03:12:07;;;;;;;14.13;6.22;;;7.10;99.90;;;;;;5016269;28;20029;-67
2023/12/13 03:14:33;;;;;;;16.23;5.75;;;7.10;99.90;;;;;;5017151;28;20057;-67
2023/12/13 03:16:58;;;;;;;17.02;7.03;;;7.10;99.90;;;;;;5016324;28;20060;-67
2023/12/13 03:19:24;;;;;;;16.35;6.28;;;7.00;99.90;;;;;;5016224;28;20034;-67
2023/12/13 03:21:49;;;;;;;18.77;7.32;;;7.10;99.90;;;;;;5016176;28;20056;-67
2023/12/13 03:24:15;;;;;;;16.42;6.15;;;7.00;99.90;;;;;;5016306;28;20057;-67
2023/12/13 03:26:40;;;;;;;18.70;6.78;;;6.90;99.90;;;;;;5016877;28;20026;-67
2023/12/13 03:29:07;;;;;;;11.18;5.07;;;6.90;99.90;;;;;;5016218;28;20156;-66
2023/12/13 03:31:32;;;;;;;12.02;5.53;;;6.80;99.90;;;;;;5016953;28;20057;-66
2023/12/13 03:34:00;;;;;;;11.80;5.35;;;6.70;99.90;;;;;;5016428;28;20069;-66
2023/12/13 03:36:26;;;;;;;13.77;5.60;;;6.70;99.90;;;;;;5016907;28;20018;-66
2023/12/13 03:38:52;;;;;;;13.93;5.43;;;6.70;99.90;;;;;;5016016;28;20128;-66
2023/12/13 03:41:18;;;;;;;17.65;6.53;;;6.60;99.90;;;;;;5017761;28;20060;-66
2023/12/13 03:43:43;;;;;;;25.63;6.22;;;6.50;99.90;;;;;;5020772;28;20113;-66
2023/12/13 03:46:09;;;;;;;29.15;6.93;;;6.60;99.90;;;;;;5019823;28;20022;-65
2023/12/13 03:48:34;;;;;;;38.47;6.78;;;6.50;99.90;;;;;;5019825;28;20045;-66
2023/12/13 03:51:01;;;;;;;24.80;6.32;;;6.50;99.90;;;;;;5020565;28;20018;-66
2023/12/13 03:53:27;;;;;;;23.95;6.38;;;6.50;99.90;;;;;;5020424;28;20014;-67
2023/12/13 03:55:52;;;;;;;80.55;9.45;;;6.50;99.90;;;;;;5019627;28;20026;-67
2023/12/13 03:58:18;;;;;;;27.90;6.05;;;6.50;99.90;;;;;;5019596;28;20077;-67
2023/12/13 04:00:43;;;;;;;22.35;5.38;;;6.40;99.90;;;;;;5020718;28;20026;-67
2023/12/13 04:03:09;;;;;;;47.35;5.45;;;6.40;99.90;;;;;;5019792;28;20026;-67
2023/12/13 04:05:34;;;;;;;31.52;4.72;;;6.40;99.90;;;;;;5019266;28;20026;-67
2023/12/13 04:08:00;;;;;;;18.27;4.53;;;6.40;99.90;;;;;;5019656;28;20025;-67
2023/12/13 04:10:26;;;;;;;16.88;4.68;;;6.50;99.90;;;;;;5020282;28;20029;-67
2023/12/13 04:12:52;;;;;;;30.98;5.22;;;6.70;99.90;;;;;;5019311;28;20025;-67
2023/12/13 04:15:17;;;;;;;13.75;4.72;;;6.60;99.90;;;;;;5019528;28;20021;-67
2023/12/13 04:17:43;;;;;;;16.63;4.80;;;6.60;99.90;;;;;;5019164;28;20026;-67
2023/12/13 04:20:09;;;;;;;10.88;3.90;;;6.60;99.90;;;;;;5019938;28;20061;-67
2023/12/13 04:22:35;;;;;;;8.77;4.18;;;6.60;99.90;;;;;;5019596;28;20026;-67
2023/12/13 04:25:00;;;;;;;9.95;3.92;;;6.60;99.90;;;;;;5019930;28;20029;-68
2023/12/13 04:27:26;;;;;;;7.72;4.00;;;6.60;99.90;;;;;;5019950;28;20045;-67
2023/12/13 04:29:51;;;;;;;10.25;3.78;;;6.70;99.90;;;;;;5019131;28;20057;-67
2023/12/13 04:32:17;;;;;;;7.05;3.88;;;6.50;99.90;;;;;;5018886;28;20026;-67
2023/12/13 04:34:43;;;;;;;8.98;4.07;;;6.60;99.90;;;;;;5018856;28;20052;-67
2023/12/13 04:37:09;;;;;;;11.52;4.93;;;6.80;99.90;;;;;;5020021;28;20026;-67
2023/12/13 04:39:35;;;;;;;8.45;3.90;;;6.80;99.90;;;;;;5018861;28;20033;-67
2023/12/13 04:42:00;;;;;;;11.10;4.65;;;6.80;99.90;;;;;;5019023;28;20038;-66
2023/12/13 04:44:27;;;;;;;11.23;4.35;;;6.50;99.90;;;;;;5019292;28;20026;-66
2023/12/13 04:46:54;;;;;;;11.45;4.45;;;6.70;99.90;;;;;;5019127;28;20080;-66
2023/12/13 04:49:20;;;;;;;8.15;4.13;;;6.70;99.90;;;;;;5018459;28;20068;-65
2023/12/13 04:51:45;;;;;;;11.05;4.43;;;6.70;99.90;;;;;;5018631;28;20022;-72
2023/12/13 04:54:11;;;;;;;9.45;4.55;;;6.70;99.90;;;;;;5018809;28;20030;-72
2023/12/13 04:56:37;;;;;;;10.93;3.75;;;6.60;99.90;;;;;;5018637;28;20033;-72
2023/12/13 04:59:02;;;;;;;8.35;3.92;;;6.60;99.90;;;;;;5019396;28;20022;-72
2023/12/13 05:01:28;;;;;;;9.70;3.97;;;6.70;99.90;;;;;;5018381;28;20026;-72
2023/12/13 05:03:54;;;;;;;9.50;4.00;;;6.70;99.90;;;;;;5019229;28;20029;-72
2023/12/13 05:06:19;;;;;;;12.35;4.70;;;6.70;99.90;;;;;;5018447;28;20030;-72
2023/12/13 05:08:46;;;;;;;11.65;4.45;;;6.70;99.90;;;;;;5018711;28;20033;-72
2023/12/13 05:11:12;;;;;;;9.02;4.10;;;6.70;99.90;;;;;;5018628;28;20022;-65
2023/12/13 05:13:37;;;;;;;9.55;4.57;;;6.70;99.90;;;;;;5019026;28;20105;-66
2023/12/13 05:16:03;;;;;;;10.18;4.32;;;6.70;99.90;;;;;;5018319;28;20037;-66
2023/12/13 05:18:29;;;;;;;8.63;3.38;;;6.70;99.90;;;;;;5019000;28;20028;-66
2023/12/13 05:20:55;;;;;;;7.13;3.55;;;6.70;99.90;;;;;;5018882;28;20032;-66
2023/12/13 05:23:20;;;;;;;8.07;3.60;;;6.70;99.90;;;;;;5018543;28;20022;-66
2023/12/13 05:25:46;;;;;;;9.82;4.00;;;6.80;99.90;;;;;;5018760;28;20022;-66
2023/12/13 05:28:11;;;;;;;7.15;3.75;;;6.80;99.90;;;;;;5018947;28;20049;-66
2023/12/13 05:30:37;;;;;;;11.77;4.05;;;6.70;99.90;;;;;;5018846;28;20026;-71
2023/12/13 05:33:03;;;;;;;7.10;3.50;;;6.70;99.90;;;;;;5017826;28;20030;-71
2023/12/13 05:35:28;;;;;;;8.98;4.10;;;6.60;99.90;;;;;;5017553;28;20029;-71
2023/12/13 05:37:54;;;;;;;11.85;3.35;;;6.60;99.90;;;;;;5018057;28;20022;-71
2023/12/13 05:40:19;;;;;;;7.38;3.25;;;6.50;99.90;;;;;;5017702;28;20021;-71
2023/12/13 05:42:45;;;;;;;8.80;3.55;;;6.50;99.90;;;;;;5017820;28;20025;-71
2023/12/13 05:45:11;;;;;;;7.70;3.10;;;6.50;99.90;;;;;;5017735;28;20030;-72
2023/12/13 05:47:36;;;;;;;7.30;3.38;;;6.50;99.90;;;;;;5018652;28;20069;-66
2023/12/13 05:50:04;;;;;;;8.80;3.58;;;6.60;99.90;;;;;;5018414;28;20025;-65
2023/12/13 05:52:32;;;;;;;10.57;4.55;;;6.70;99.90;;;;;;5018297;28;20022;-65
2023/12/13 05:54:58;;;;;;;8.57;4.18;;;6.70;99.90;;;;;;5018192;28;20068;-66
2023/12/13 05:57:24;;;;;;;12.05;4.75;;;6.80;99.90;;;;;;5017398;28;20030;-66
2023/12/13 05:59:49;;;;;;;7.85;3.90;;;6.90;99.90;;;;;;5018233;28;20026;-66
2023/12/13 06:02:15;;;;;;;13.18;4.63;;;6.90;99.90;;;;;;5017205;28;20037;-66
2023/12/13 06:04:42;;;;;;;10.05;3.72;;;7.00;99.90;;;;;;5017987;28;20037;-66
2023/12/13 06:07:11;;;;;;;8.43;4.25;;;7.10;99.90;;;;;;5018020;28;20075;-66
2023/12/13 06:09:36;;;;;;;14.05;4.35;;;7.10;99.90;;;;;;5017473;28;20164;-66
2023/12/13 06:12:03;;;;;;;11.70;4.15;;;7.20;99.90;;;;;;5018123;28;20061;-66
2023/12/13 06:14:29;;;;;;;8.93;4.15;;;7.20;99.90;;;;;;5017003;28;20112;-66
2023/12/13 06:16:55;;;;;;;9.05;3.90;;;7.20;99.90;;;;;;5018276;28;20021;-66
2023/12/13 06:19:21;;;;;;;11.52;4.50;;;7.20;99.90;;;;;;5017235;28;20028;-66
2023/12/13 06:21:46;;;;;;;10.90;3.97;;;7.30;99.90;;;;;;5017963;28;20025;-67
2023/12/13 06:24:12;;;;;;;16.67;4.70;;;7.30;99.90;;;;;;5017855;28;20030;-66
2023/12/13 06:26:38;;;;;;;9.48;4.32;;;7.40;99.90;;;;;;5017590;28;20034;-66
2023/12/13 06:29:04;;;;;;;11.60;4.45;;;7.40;99.90;;;;;;5016776;28;20119;-71
2023/12/13 06:31:30;;;;;;;9.13;4.38;;;7.40;99.90;;;;;;5017630;28;20054;-71
2023/12/13 06:33:56;;;;;;;11.48;4.05;;;7.40;99.90;;;;;;5017564;28;20018;-71
2023/12/13 06:36:21;;;;;;;9.60;4.47;;;7.40;99.90;;;;;;5016639;28;20030;-71
2023/12/13 06:38:47;;;;;;;10.75;4.00;;;7.50;99.90;;;;;;5017019;28;20026;-71
2023/12/13 06:41:13;;;;;;;12.10;3.78;;;7.50;99.90;;;;;;5016664;28;20026;-72
2023/12/13 06:43:38;;;;;;;10.68;4.40;;;7.50;99.90;;;;;;5016876;28;20079;-71
2023/12/13 06:46:04;;;;;;;12.20;4.22;;;7.40;99.90;;;;;;5016339;28;20077;-71
2023/12/13 06:48:30;;;;;;;10.55;4.15;;;7.40;99.90;;;;;;5017735;28;20033;-72
2023/12/13 06:50:55;;;;;;;11.50;4.38;;;7.60;99.90;;;;;;5017416;28;20018;-71
2023/12/13 06:53:21;;;;;;;8.75;4.70;;;7.70;99.90;;;;;;5017973;28;20026;-72
2023/12/13 06:55:47;;;;;;;16.02;4.85;;;7.80;99.90;;;;;;5017200;28;20077;-71
2023/12/13 06:58:13;;;;;;;15.25;4.88;;;7.80;99.90;;;;;;5017286;28;20028;-72
2023/12/13 07:00:39;;;;;;;14.75;4.68;;;7.90;99.90;;;;;;5016798;28;20036;-71
2023/12/13 07:03:05;;;;;;;12.45;4.38;;;7.90;99.90;;;;;;5016383;28;20022;-72
2023/12/13 07:05:30;;;;;;;14.25;5.20;;;8.00;99.90;;;;;;5016178;28;20080;-71
2023/12/13 07:07:56;;;;;;;8.82;5.00;;;8.10;99.90;;;;;;5017435;28;20032;-72
2023/12/13 07:10:21;;;;;;;13.38;4.65;;;8.20;99.90;;;;;;5016441;28;20089;-71
2023/12/13 07:12:47;;;;;;;10.20;4.82;;;8.20;99.90;;;;;;5017204;28;20029;-71
2023/12/13 07:15:14;;;;;;;14.77;5.40;;;8.20;99.90;;;;;;5017252;28;20026;-71
2023/12/13 07:17:42;;;;;;;18.75;5.38;;;8.20;99.90;;;;;;5021181;28;20123;-72
2023/12/13 07:20:10;;;;;;;11.90;5.03;;;8.20;99.90;;;;;;5021249;28;20018;-72
2023/12/13 07:22:36;;;;;;;15.43;5.70;;;8.30;99.90;;;;;;5021133;28;20041;-72
2023/12/13 07:25:02;;;;;;;13.48;5.70;;;8.30;99.90;;;;;;5021205;28;20018;-73
2023/12/13 07:27:28;;;;;;;12.07;6.28;;;8.40;99.90;;;;;;5021194;28;20030;-72
2023/12/13 07:29:54;;;;;;;12.98;5.97;;;8.30;99.90;;;;;;5020170;28;20033;-71
2023/12/13 07:32:19;;;;;;;17.92;6.05;;;8.30;99.90;;;;;;5020008;28;20022;-71
2023/12/13 07:34:45;;;;;;;17.25;6.20;;;8.20;99.90;;;;;;5020290;28;20029;-71
2023/12/13 07:37:10;;;;;;;21.08;7.03;;;8.20;99.90;;;;;;5020986;28;20109;-72
2023/12/13 07:39:36;;;;;;;13.48;5.32;;;8.00;99.90;;;;;;5019850;28;20022;-71
2023/12/13 07:42:03;;;;;;;15.98;6.05;;;8.00;99.90;;;;;;5021128;28;20018;-71
2023/12/13 07:44:32;;;;;;;15.30;6.65;;;7.90;99.90;;;;;;5019865;28;20108;-72
2023/12/13 07:46:58;;;;;;;15.18;6.03;;;7.90;99.90;;;;;;5019624;28;20034;-71
2023/12/13 07:49:24;;;;;;;16.58;7.97;;;7.80;99.90;;;;;;5020647;28;20067;-71
2023/12/13 07:51:50;;;;;;;16.20;7.43;;;7.70;99.90;;;;;;5019680;28;20022;-71
2023/12/13 07:54:16;;;;;;;12.85;5.13;;;7.70;99.90;;;;;;5020636;28;20026;-71
2023/12/13 07:56:42;;;;;;;16.67;5.10;;;7.70;99.90;;;;;;5019769;28;20053;-71
2023/12/13 07:59:07;;;;;;;12.75;4.45;;;7.50;99.90;;;;;;5020565;28;20026;-72
2023/12/13 08:01:33;;;;;;;13.13;5.55;;;7.50;99.90;;;;;;5020606;28;20064;-71
2023/12/13 08:03:58;;;;;;;9.93;5.50;;;7.50;99.90;;;;;;5019648;28;20057;-71
2023/12/13 08:06:24;;;;;;;15.02;6.13;;;7.40;99.90;;;;;;5019357;28;20083;-71
2023/12/13 08:08:51;;;;;;;13.30;6.45;;;7.50;99.90;;;;;;5020238;28;20018;-71
2023/12/13 08:11:17;;;;;;;17.77;6.10;;;7.60;99.90;;;;;;5020267;28;20029;-71
2023/12/13 08:13:43;;;;;;;18.10;6.75;;;7.50;99.90;;;;;;5019377;28;20025;-72
2023/12/13 08:16:09;;;;;;;17.85;7.20;;;7.60;99.90;;;;;;5020411;28;20026;-71
2023/12/13 08:18:36;;;;;;;18.80;6.47;;;7.70;99.90;;;;;;5020432;28;20021;-71
2023/12/13 08:21:03;;;;;;;20.90;6.55;;;7.80;99.90;;;;;;5019621;28;20060;-71
2023/12/13 08:23:29;;;;;;;10.15;5.75;;;7.80;99.90;;;;;;5020325;28;20022;-71
2023/12/13 08:25:56;;;;;;;18.35;7.60;;;7.90;99.90;;;;;;5020220;28;20030;-71
2023/12/13 08:28:21;;;;;;;23.73;7.63;;;7.90;99.90;;;;;;5018575;28;20022;-71
2023/12/13 08:30:47;;;;;;;18.70;7.95;;;8.00;99.90;;;;;;5019871;28;20018;-71
2023/12/13 08:33:13;;;;;;;21.35;8.23;;;8.00;99.90;;;;;;5020196;28;20021;-71
2023/12/13 08:35:38;;;;;;;19.40;7.78;;;8.10;99.90;;;;;;5018883;28;20029;-71
2023/12/13 08:38:04;;;;;;;21.60;8.20;;;8.10;99.90;;;;;;5019881;28;20026;-72
2023/12/13 08:40:29;;;;;;;16.63;8.20;;;8.10;99.90;;;;;;5019681;28;20105;-72
2023/12/13 08:42:55;;;;;;;15.48;7.97;;;8.10;99.90;;;;;;5019029;28;20026;-72
2023/12/13 08:45:21;;;;;;;17.23;7.95;;;8.20;99.90;;;;;;5018808;28;20030;-71
2023/12/13 08:47:46;;;;;;;17.75;8.65;;;8.10;99.90;;;;;;5019862;28;20064;-71
2023/12/13 08:50:12;;;;;;;20.95;9.05;;;8.10;99.90;;;;;;5019117;28;20022;-71
2023/12/13 08:52:38;;;;;;;18.52;8.02;;;8.10;99.90;;;;;;5018887;28;20064;-71
2023/12/13 08:55:04;;;;;;;18.52;8.00;;;8.10;99.90;;;;;;5019343;28;20030;-71
2023/12/13 08:57:31;;;;;;;13.70;6.93;;;8.10;99.90;;;;;;5019740;28;20044;-71
2023/12/13 08:59:57;;;;;;;17.70;7.72;;;8.10;99.90;;;;;;5018432;28;20045;-71
2023/12/13 09:02:22;;;;;;;19.55;6.95;;;8.10;99.90;;;;;;5019355;28;20030;-71
2023/12/13 09:04:48;;;;;;;18.05;7.78;;;8.10;99.90;;;;;;5019248;28;20029;-71
2023/12/13 09:07:13;;;;;;;26.27;10.32;;;8.10;99.90;;;;;;5018400;28;20030;-71
2023/12/13 09:09:39;;;;;;;24.50;10.00;;;8.10;99.90;;;;;;5019785;28;20061;-71
2023/12/13 09:12:05;;;;;;;23.95;10.60;;;8.20;99.90;;;;;;5019123;28;20034;-72
2023/12/13 09:14:31;;;;;;;25.30;9.98;;;8.20;99.90;;;;;;5018170;28;20085;-71
2023/12/13 09:16:56;;;;;;;24.45;10.75;;;8.20;99.90;;;;;;5019024;28;20026;-71
2023/12/13 09:19:22;;;;;;;23.25;9.73;;;8.30;99.90;;;;;;5019010;28;20065;-71
2023/12/13 09:21:47;;;;;;;21.65;9.20;;;8.30;99.90;;;;;;5018484;28;20021;-71
2023/12/13 09:24:13;;;;;;;19.70;8.02;;;8.40;99.90;;;;;;5018845;28;20030;-71
2023/12/13 09:26:39;;;;;;;17.40;7.22;;;8.40;99.90;;;;;;5018698;28;20033;-71
2023/12/13 09:29:04;;;;;;;15.32;6.72;;;8.40;99.90;;;;;;5019095;28;20025;-71
2023/12/13 09:31:30;;;;;;;21.17;7.85;;;8.40;99.90;;;;;;5017900;28;20022;-71
2023/12/13 09:33:57;;;;;;;16.42;6.63;;;8.40;99.90;;;;;;5018828;28;20026;-72
2023/12/13 09:36:22;;;;;;;17.77;7.15;;;8.40;99.90;;;;;;5017657;28;20022;-71
2023/12/13 09:38:48;;;;;;;16.10;6.93;;;8.30;99.90;;;;;;5018200;28;20037;-71
2023/12/13 09:41:23;;;;;;;17.30;7.30;;;8.30;99.90;;;;;;5017853;28;20032;-71
2023/12/13 09:43:49;;;;;;;19.55;9.00;;;8.40;99.90;;;;;;5018520;28;20113;-72
2023/12/13 09:46:18;;;;;;;27.33;9.85;;;8.30;99.90;;;;;;5018824;28;20026;-71
2023/12/13 09:48:44;;;;;;;24.98;10.68;;;8.30;99.90;;;;;;5017632;28;20022;-71
2023/12/13 09:51:11;;;;;;;23.00;9.80;;;8.40;99.90;;;;;;5018362;28;20105;-71
2023/12/13 09:53:39;;;;;;;28.50;10.10;;;8.50;99.90;;;;;;5017496;28;20107;-71
2023/12/13 09:56:08;;;;;;;25.92;10.52;;;8.60;99.90;;;;;;5018519;28;20022;-71
2023/12/13 09:58:35;;;;;;;23.20;9.30;;;8.60;99.90;;;;;;5018287;28;20025;-71
2023/12/13 10:01:10;;;;;;;26.20;10.93;;;8.60;99.90;;;;;;5018272;28;20029;-71
2023/12/13 10:03:39;;;;;;;26.63;9.18;;;8.70;99.90;;;;;;5017645;28;20026;-71
2023/12/13 10:06:08;;;;;;;21.02;9.13;;;8.60;99.90;;;;;;5018032;28;20084;-71
2023/12/13 10:08:35;;;;;;;25.00;9.93;;;8.70;99.90;;;;;;5017245;28;20030;-71
2023/12/13 10:11:05;;;;;;;25.98;10.70;;;8.70;99.90;;;;;;5017895;28;20088;-71
2023/12/13 10:13:31;;;;;;;23.55;8.90;;;8.60;99.90;;;;;;5018271;28;20026;-71
2023/12/13 10:16:08;;;;;;;29.13;10.55;;;8.60;99.90;;;;;;5016921;28;20091;-71
2023/12/13 10:18:34;;;;;;;26.20;10.30;;;8.50;99.90;;;;;;5018305;28;20066;-71
2023/12/13 10:21:00;;;;;;;25.00;10.00;;;8.60;99.90;;;;;;5017309;28;20033;-71
2023/12/13 10:23:25;;;;;;;26.98;9.75;;;8.60;99.90;;;;;;5016927;28;20037;-73
2023/12/13 10:25:52;;;;;;;25.65;8.80;;;8.60;99.90;;;;;;5017463;28;20033;-72
2023/12/13 10:28:20;;;;;;;22.13;8.73;;;8.60;99.90;;;;;;5017173;28;20033;-71
2023/12/13 10:30:49;;;;;;;22.35;8.75;;;8.70;99.90;;;;;;5019127;28;20085;-67
2023/12/13 10:33:14;;;;;;;30.67;9.63;;;8.70;99.90;;;;;;5017687;28;20026;-67
2023/12/13 10:35:41;;;;;;;29.75;9.50;;;8.70;99.90;;;;;;5017002;28;20030;-67
2023/12/13 10:38:10;;;;;;;23.45;10.23;;;8.70;99.90;;;;;;5017300;28;20030;-67
2023/12/13 10:40:35;;;;;;;25.40;9.52;;;8.80;99.90;;;;;;5017494;28;20024;-67
2023/12/13 10:43:04;;;;;;;26.48;11.27;;;8.70;99.90;;;;;;5016682;28;20026;-67
2023/12/13 10:45:30;;;;;;;25.90;11.82;;;8.80;99.90;;;;;;5016379;28;20038;-67
2023/12/13 10:48:00;;;;;;;27.65;11.25;;;8.90;99.90;;;;;;5017559;28;20022;-67
2023/12/13 10:50:27;;;;;;;28.02;11.05;;;8.90;99.90;;;;;;5016104;28;20041;-67
2023/12/13 10:52:55;;;;;;;31.27;11.13;;;8.90;99.90;;;;;;5016439;28;20021;-67
2023/12/13 10:55:22;;;;;;;25.95;10.73;;;8.80;99.90;;;;;;5017343;28;20029;-67
2023/12/13 10:57:48;;;;;;;30.23;11.45;;;8.90;99.90;;;;;;5016454;28;20086;-67
2023/12/13 11:00:15;;;;;;;25.52;10.32;;;8.90;99.90;;;;;;5016467;28;20018;-67
2023/12/13 11:03:13;;;;;;;25.70;10.88;;;8.90;99.90;;;;;;5017637;28;20018;-67
2023/12/13 11:05:39;;;;;;;40.00;14.88;;;9.00;99.90;;;;;;5017291;28;20112;-67
2023/12/13 11:08:16;;;;;;;34.45;12.77;;;8.90;99.90;;;;;;5016660;28;20064;-67
2023/12/13 11:11:00;;;;;;;40.47;12.52;;;9.00;99.90;;;;;;5017573;28;20018;-67
2023/12/13 11:13:25;;;;;;;29.92;10.10;;;8.90;99.90;;;;;;5016352;28;20076;-67
2023/12/13 11:15:51;;;;;;;29.00;11.77;;;8.90;99.90;;;;;;5016208;28;20025;-67
2023/12/13 11:18:17;;;;;;;30.25;10.77;;;9.00;99.90;;;;;;5017110;28;20029;-67
2023/12/13 11:20:48;;;;;;;36.38;11.68;;;9.00;99.90;;;;;;5016531;28;20026;-67
2023/12/13 11:23:17;;;;;;;29.48;11.75;;;9.00;99.90;;;;;;5017440;28;20029;-67
2023/12/13 11:25:45;;;;;;;27.30;10.52;;;9.00;99.90;;;;;;5016654;28;20053;-67
2023/12/13 11:28:22;;;;;;;28.40;12.20;;;9.10;99.90;;;;;;5016265;28;20056;-67
2023/12/13 11:30:48;;;;;;;30.55;10.95;;;9.20;99.90;;;;;;5017118;28;20033;-67
2023/12/13 11:33:20;;;;;;;26.30;10.30;;;9.20;99.90;;;;;;5016576;28;20026;-67
2023/12/13 11:35:46;;;;;;;18.15;9.52;;;9.30;99.90;;;;;;5015878;28;20119;-67
2023/12/13 11:38:13;;;;;;;18.80;9.40;;;9.40;99.90;;;;;;5017165;28;20030;-67
2023/12/13 11:40:40;;;;;;;23.85;10.60;;;9.40;99.90;;;;;;5016693;28;20111;-67
2023/12/13 11:43:06;;;;;;;18.23;8.40;;;9.50;99.90;;;;;;5016938;28;20025;-67
2023/12/13 11:45:31;;;;;;;25.42;9.07;;;9.50;99.90;;;;;;5040113;22;20041;-67
2023/12/13 11:48:00;;;;;;;23.52;8.88;;;9.50;99.90;;;;;;5016081;28;20022;-66
2023/12/13 11:50:26;;;;;;;20.40;8.80;;;9.50;99.90;;;;;;5016888;28;20022;-66
2023/12/13 11:52:51;;;;;;;26.58;9.48;;;9.60;99.90;;;;;;5016298;28;20030;-66
2023/12/13 11:55:19;;;;;;;20.67;9.00;;;9.70;99.90;;;;;;5016678;28;20026;-66
2023/12/13 11:57:46;;;;;;;19.58;8.05;;;9.80;99.90;;;;;;5016812;28;20025;-67
2023/12/13 12:00:12;;;;;;;20.40;8.32;;;9.80;99.90;;;;;;5015848;28;20037;-67
2023/12/13 12:02:37;;;;;;;22.08;8.48;;;9.80;99.90;;;;;;5018791;28;20040;-68
2023/12/13 12:05:06;;;;;;;24.15;8.88;;;9.80;99.90;;;;;;5020668;28;20032;-67
2023/12/13 12:07:32;;;;;;;15.45;7.28;;;9.90;99.90;;;;;;5020287;28;20017;-66
2023/12/13 12:09:59;;;;;;;14.38;6.55;;;10.00;99.90;;;;;;5019499;28;20029;-66
2023/12/13 12:12:25;;;;;;;11.73;5.25;;;10.00;99.90;;;;;;5020199;28;20022;-66
2023/12/13 12:14:51;;;;;;;10.38;5.32;;;10.20;99.90;;;;;;5020125;28;20073;-67
2023/12/13 12:17:20;;;;;;;9.15;5.03;;;10.40;99.90;;;;;;5019864;28;20032;-66
2023/12/13 12:19:50;;;;;;;12.32;5.38;;;10.70;99.90;;;;;;5019283;28;20113;-66
2023/12/13 12:22:17;;;;;;;9.68;4.47;;;10.90;99.90;;;;;;5020169;28;20108;-66
2023/12/13 12:24:47;;;;;;;9.52;4.85;;;11.10;99.90;;;;;;5020026;28;20026;-66
2023/12/13 12:27:13;;;;;;;8.90;3.63;;;11.30;99.90;;;;;;5019418;28;20026;-67
2023/12/13 12:29:39;;;;;;;5.63;2.97;;;11.40;99.90;;;;;;5019001;28;20080;-66
2023/12/13 12:32:08;;;;;;;8.10;2.83;;;11.50;99.90;;;;;;5020105;28;20105;-66
2023/12/13 12:34:35;;;;;;;8.65;3.38;;;11.50;99.90;;;;;;5019980;28;20028;-66
2023/12/13 12:37:02;;;;;;;9.15;2.35;;;11.50;99.90;;;;;;5019831;28;20032;-66
2023/12/13 12:39:28;;;;;;;7.90;3.10;;;11.50;99.90;;;;;;5018951;28;20120;-66
2023/12/13 12:41:55;;;;;;;8.20;3.25;;;11.40;99.90;;;;;;5019703;28;20022;-67
2023/12/13 12:44:21;;;;;;;7.70;3.28;;;11.20;99.90;;;;;;5019519;28;20030;-67